sensor_id;sensor_type;location;lat;lon;timestamp;temperature;humidity
35381;DHT22;21486;51.916;8.378;2023-08-30T00:00:10;13.60;99.90
35381;DHT22;21486;51.916;8.378;2023-08-30T00:02:36;13.60;99.90
35381;DHT22;21486;51.916;8.378;2023-08-30T00:05:03;13.60;99.90
35381;DHT22;21486;51.916;8.378;2023-08-30T00:07:29;13.60;99.90
35381;DHT22;21486;51.916;8.378;2023-08-30T00:09:56;13.50;99.90
35381;DHT22;21486;51.916;8.378;2023-08-30T00:12:21;13.50;99.90
35381;DHT22;21486;51.916;8.378;2023-08-30T00:14:47;13.50;99.90
35381;DHT22;21486;51.916;8.378;2023-08-30T00:17:13;13.50;99.90
35381;DHT22;21486;51.916;8.378;2023-08-30T00:19:40;13.50;99.90
35381;DHT22;21486;51.916;8.378;2023-08-30T00:22:05;13.50;99.90
35381;DHT22;21486;51.916;8.378;2023-08-30T00:24:33;13.40;99.90
35381;DHT22;21486;51.916;8.378;2023-08-30T00:26:58;13.50;99.90
35381;DHT22;21486;51.916;8.378;2023-08-30T00:29:24;13.50;99.90
35381;DHT22;21486;51.916;8.378;2023-08-30T00:33:02;13.50;99.90
35381;DHT22;21486;51.916;8.378;2023-08-30T00:35:28;13.50;99.90
35381;DHT22;21486;51.916;8.378;2023-08-30T00:37:53;13.50;99.90
35381;DHT22;21486;51.916;8.378;2023-08-30T00:40:23;13.50;99.90
35381;DHT22;21486;51.916;8.378;2023-08-30T00:42:49;13.50;99.90
35381;DHT22;21486;51.916;8.378;2023-08-30T00:45:15;13.60;99.90
35381;DHT22;21486;51.916;8.378;2023-08-30T00:47:40;13.50;99.90
35381;DHT22;21486;51.916;8.378;2023-08-30T00:50:06;13.60;99.90
35381;DHT22;21486;51.916;8.378;2023-08-30T00:52:32;13.60;99.90
35381;DHT22;21486;51.916;8.378;2023-08-30T00:54:59;13.60;99.90
35381;DHT22;21486;51.916;8.378;2023-08-30T00:57:24;13.50;99.90
35381;DHT22;21486;51.916;8.378;2023-08-30T00:59:51;13.50;99.90
35381;DHT22;21486;51.916;8.378;2023-08-30T01:02:18;13.50;99.90
35381;DHT22;21486;51.916;8.378;2023-08-30T01:04:45;13.50;99.90
35381;DHT22;21486;51.916;8.378;2023-08-30T01:07:11;13.50;99.90
35381;DHT22;21486;51.916;8.378;2023-08-30T01:09:36;13.40;99.90
35381;DHT22;21486;51.916;8.378;2023-08-30T01:12:12;13.40;99.90
35381;DHT22;21486;51.916;8.378;2023-08-30T01:14:46;13.40;99.90
35381;DHT22;21486;51.916;8.378;2023-08-30T01:17:16;13.50;99.90
35381;DHT22;21486;51.916;8.378;2023-08-30T01:19:50;13.50;99.90
35381;DHT22;21486;51.916;8.378;2023-08-30T01:27:30;13.50;99.90
35381;DHT22;21486;51.916;8.378;2023-08-30T01:30:01;13.50;99.90
35381;DHT22;21486;51.916;8.378;2023-08-30T01:32:28;13.60;99.90
35381;DHT22;21486;51.916;8.378;2023-08-30T01:34:54;13.50;99.90
35381;DHT22;21486;51.916;8.378;2023-08-30T01:37:21;13.50;99.90
35381;DHT22;21486;51.916;8.378;2023-08-30T01:39:47;13.60;99.90
35381;DHT22;21486;51.916;8.378;2023-08-30T01:42:14;13.50;99.90
35381;DHT22;21486;51.916;8.378;2023-08-30T01:44:41;13.40;99.90
35381;DHT22;21486;51.916;8.378;2023-08-30T01:47:10;13.40;99.90
35381;DHT22;21486;51.916;8.378;2023-08-30T01:49:36;13.40;99.90
35381;DHT22;21486;51.916;8.378;2023-08-30T01:52:05;13.40;99.90
35381;DHT22;21486;51.916;8.378;2023-08-30T01:54:32;13.50;99.90
35381;DHT22;21486;51.916;8.378;2023-08-30T01:56:58;13.50;99.90
35381;DHT22;21486;51.916;8.378;2023-08-30T01:59:24;13.50;99.90
35381;DHT22;21486;51.916;8.378;2023-08-30T02:01:51;13.50;99.90
35381;DHT22;21486;51.916;8.378;2023-08-30T02:04:16;13.50;99.90
35381;DHT22;21486;51.916;8.378;2023-08-30T02:06:49;13.50;99.90
35381;DHT22;21486;51.916;8.378;2023-08-30T02:09:24;13.40;99.90
35381;DHT22;21486;51.916;8.378;2023-08-30T02:11:52;13.40;99.90
35381;DHT22;21486;51.916;8.378;2023-08-30T02:14:20;13.40;99.90
35381;DHT22;21486;51.916;8.378;2023-08-30T02:16:47;13.40;99.90
35381;DHT22;21486;51.916;8.378;2023-08-30T02:19:13;13.50;99.90
35381;DHT22;21486;51.916;8.378;2023-08-30T02:21:42;13.50;99.90
35381;DHT22;21486;51.916;8.378;2023-08-30T02:24:08;13.50;99.90
35381;DHT22;21486;51.916;8.378;2023-08-30T02:26:34;13.50;99.90
35381;DHT22;21486;51.916;8.378;2023-08-30T02:28:59;13.60;99.90
35381;DHT22;21486;51.916;8.378;2023-08-30T02:31:25;13.50;99.90
35381;DHT22;21486;51.916;8.378;2023-08-30T02:33:50;13.50;99.90
35381;DHT22;21486;51.916;8.378;2023-08-30T02:36:16;13.50;99.90
35381;DHT22;21486;51.916;8.378;2023-08-30T02:38:41;13.50;99.90
35381;DHT22;21486;51.916;8.378;2023-08-30T02:41:07;13.50;99.90
35381;DHT22;21486;51.916;8.378;2023-08-30T02:43:32;13.50;99.90
35381;DHT22;21486;51.916;8.378;2023-08-30T02:45:58;13.40;99.90
35381;DHT22;21486;51.916;8.378;2023-08-30T02:48:24;13.40;99.90
35381;DHT22;21486;51.916;8.378;2023-08-30T02:50:49;13.40;99.90
35381;DHT22;21486;51.916;8.378;2023-08-30T02:53:15;13.40;99.90
35381;DHT22;21486;51.916;8.378;2023-08-30T02:55:40;13.40;99.90
35381;DHT22;21486;51.916;8.378;2023-08-30T02:58:06;13.40;99.90
35381;DHT22;21486;51.916;8.378;2023-08-30T03:00:31;13.40;99.90
35381;DHT22;21486;51.916;8.378;2023-08-30T03:02:57;13.40;99.90
35381;DHT22;21486;51.916;8.378;2023-08-30T03:05:22;13.40;99.90
35381;DHT22;21486;51.916;8.378;2023-08-30T03:07:48;13.40;99.90
35381;DHT22;21486;51.916;8.378;2023-08-30T03:10:13;13.40;99.90
35381;DHT22;21486;51.916;8.378;2023-08-30T03:12:39;13.40;99.90
35381;DHT22;21486;51.916;8.378;2023-08-30T03:15:05;13.40;99.90
35381;DHT22;21486;51.916;8.378;2023-08-30T03:17:31;13.30;99.90
35381;DHT22;21486;51.916;8.378;2023-08-30T03:19:56;13.30;99.90
35381;DHT22;21486;51.916;8.378;2023-08-30T03:22:22;13.20;99.90
35381;DHT22;21486;51.916;8.378;2023-08-30T03:24:47;13.20;99.90
35381;DHT22;21486;51.916;8.378;2023-08-30T03:27:14;13.10;99.90
35381;DHT22;21486;51.916;8.378;2023-08-30T03:29:40;13.00;99.90
35381;DHT22;21486;51.916;8.378;2023-08-30T03:32:05;13.00;99.90
35381;DHT22;21486;51.916;8.378;2023-08-30T03:34:31;13.00;99.90
35381;DHT22;21486;51.916;8.378;2023-08-30T03:36:56;12.90;99.90
35381;DHT22;21486;51.916;8.378;2023-08-30T03:39:23;12.90;99.90
35381;DHT22;21486;51.916;8.378;2023-08-30T03:41:50;12.90;99.90
35381;DHT22;21486;51.916;8.378;2023-08-30T03:44:15;12.90;99.90
35381;DHT22;21486;51.916;8.378;2023-08-30T03:46:41;12.80;99.90
35381;DHT22;21486;51.916;8.378;2023-08-30T03:49:06;12.90;99.90
35381;DHT22;21486;51.916;8.378;2023-08-30T03:51:32;12.80;99.90
35381;DHT22;21486;51.916;8.378;2023-08-30T03:53:57;12.80;99.90
35381;DHT22;21486;51.916;8.378;2023-08-30T03:56:23;12.70;99.90
35381;DHT22;21486;51.916;8.378;2023-08-30T03:58:49;12.70;99.90
35381;DHT22;21486;51.916;8.378;2023-08-30T04:01:14;12.80;99.90
35381;DHT22;21486;51.916;8.378;2023-08-30T04:03:40;12.70;99.90
35381;DHT22;21486;51.916;8.378;2023-08-30T04:06:06;12.80;99.90
35381;DHT22;21486;51.916;8.378;2023-08-30T04:08:32;12.80;99.90
35381;DHT22;21486;51.916;8.378;2023-08-30T04:10:57;12.80;99.90
35381;DHT22;21486;51.916;8.378;2023-08-30T04:13:23;12.80;99.90
35381;DHT22;21486;51.916;8.378;2023-08-30T04:15:49;12.90;99.90
35381;DHT22;21486;51.916;8.378;2023-08-30T04:18:14;12.90;99.90
35381;DHT22;21486;51.916;8.378;2023-08-30T04:20:45;12.80;99.90
35381;DHT22;21486;51.916;8.378;2023-08-30T04:23:11;12.80;99.90
35381;DHT22;21486;51.916;8.378;2023-08-30T04:25:36;12.80;99.90
35381;DHT22;21486;51.916;8.378;2023-08-30T04:28:02;12.70;99.90
35381;DHT22;21486;51.916;8.378;2023-08-30T04:30:28;12.70;99.90
35381;DHT22;21486;51.916;8.378;2023-08-30T04:32:54;12.60;99.90
35381;DHT22;21486;51.916;8.378;2023-08-30T04:35:19;12.60;99.90
35381;DHT22;21486;51.916;8.378;2023-08-30T04:37:45;12.60;99.90
35381;DHT22;21486;51.916;8.378;2023-08-30T04:40:11;12.60;99.90
35381;DHT22;21486;51.916;8.378;2023-08-30T04:42:37;12.60;99.90
35381;DHT22;21486;51.916;8.378;2023-08-30T04:45:04;12.60;99.90
35381;DHT22;21486;51.916;8.378;2023-08-30T04:47:29;12.50;99.90
35381;DHT22;21486;51.916;8.378;2023-08-30T04:49:55;12.60;99.90
35381;DHT22;21486;51.916;8.378;2023-08-30T04:52:21;12.70;99.90
35381;DHT22;21486;51.916;8.378;2023-08-30T04:54:46;12.80;99.90
35381;DHT22;21486;51.916;8.378;2023-08-30T04:57:17;12.80;99.90
35381;DHT22;21486;51.916;8.378;2023-08-30T04:59:45;12.80;99.90
35381;DHT22;21486;51.916;8.378;2023-08-30T05:02:11;12.80;99.90
35381;DHT22;21486;51.916;8.378;2023-08-30T05:04:37;12.90;99.90
35381;DHT22;21486;51.916;8.378;2023-08-30T05:07:03;12.90;99.90
35381;DHT22;21486;51.916;8.378;2023-08-30T05:09:30;12.90;99.90
35381;DHT22;21486;51.916;8.378;2023-08-30T05:11:56;13.00;99.90
35381;DHT22;21486;51.916;8.378;2023-08-30T05:14:21;13.10;99.90
35381;DHT22;21486;51.916;8.378;2023-08-30T05:16:48;13.10;99.90
35381;DHT22;21486;51.916;8.378;2023-08-30T05:19:14;13.20;99.90
35381;DHT22;21486;51.916;8.378;2023-08-30T05:21:39;13.20;99.90
35381;DHT22;21486;51.916;8.378;2023-08-30T05:24:05;13.20;99.90
35381;DHT22;21486;51.916;8.378;2023-08-30T05:26:32;13.20;99.90
35381;DHT22;21486;51.916;8.378;2023-08-30T05:28:58;13.30;99.90
35381;DHT22;21486;51.916;8.378;2023-08-30T05:31:24;13.30;99.90
35381;DHT22;21486;51.916;8.378;2023-08-30T05:33:49;13.30;99.90
35381;DHT22;21486;51.916;8.378;2023-08-30T05:36:15;13.30;99.90
35381;DHT22;21486;51.916;8.378;2023-08-30T05:38:40;13.50;99.90
35381;DHT22;21486;51.916;8.378;2023-08-30T05:41:07;13.40;99.90
35381;DHT22;21486;51.916;8.378;2023-08-30T05:43:33;13.50;99.90
35381;DHT22;21486;51.916;8.378;2023-08-30T05:45:58;13.50;99.90
35381;DHT22;21486;51.916;8.378;2023-08-30T05:48:29;13.50;99.90
35381;DHT22;21486;51.916;8.378;2023-08-30T05:50:54;13.40;99.90
35381;DHT22;21486;51.916;8.378;2023-08-30T05:53:20;13.60;99.90
35381;DHT22;21486;51.916;8.378;2023-08-30T05:55:45;13.70;99.90
35381;DHT22;21486;51.916;8.378;2023-08-30T05:58:11;13.80;99.90
35381;DHT22;21486;51.916;8.378;2023-08-30T06:00:36;13.70;99.90
35381;DHT22;21486;51.916;8.378;2023-08-30T06:03:03;13.80;99.90
35381;DHT22;21486;51.916;8.378;2023-08-30T06:05:28;13.80;99.90
35381;DHT22;21486;51.916;8.378;2023-08-30T06:07:54;13.70;99.90
35381;DHT22;21486;51.916;8.378;2023-08-30T06:10:20;13.70;99.90
35381;DHT22;21486;51.916;8.378;2023-08-30T06:12:45;13.80;99.90
35381;DHT22;21486;51.916;8.378;2023-08-30T06:15:11;13.80;99.90
35381;DHT22;21486;51.916;8.378;2023-08-30T06:17:36;13.90;99.90
35381;DHT22;21486;51.916;8.378;2023-08-30T06:20:02;13.90;99.90
35381;DHT22;21486;51.916;8.378;2023-08-30T06:22:28;14.00;99.90
35381;DHT22;21486;51.916;8.378;2023-08-30T06:24:54;14.10;99.90
35381;DHT22;21486;51.916;8.378;2023-08-30T06:27:19;14.10;99.90
35381;DHT22;21486;51.916;8.378;2023-08-30T06:29:45;14.10;99.90
35381;DHT22;21486;51.916;8.378;2023-08-30T06:32:11;14.20;99.90
35381;DHT22;21486;51.916;8.378;2023-08-30T06:34:36;14.30;99.90
35381;DHT22;21486;51.916;8.378;2023-08-30T06:37:02;14.40;99.90
35381;DHT22;21486;51.916;8.378;2023-08-30T06:39:33;14.30;99.90
35381;DHT22;21486;51.916;8.378;2023-08-30T06:41:59;14.30;99.90
35381;DHT22;21486;51.916;8.378;2023-08-30T06:44:25;14.40;99.90
35381;DHT22;21486;51.916;8.378;2023-08-30T06:46:50;14.40;99.90
35381;DHT22;21486;51.916;8.378;2023-08-30T06:49:16;14.60;99.90
35381;DHT22;21486;51.916;8.378;2023-08-30T06:51:42;14.70;99.90
35381;DHT22;21486;51.916;8.378;2023-08-30T06:54:07;14.80;99.90
35381;DHT22;21486;51.916;8.378;2023-08-30T06:56:33;14.90;99.90
35381;DHT22;21486;51.916;8.378;2023-08-30T06:58:58;15.00;99.90
35381;DHT22;21486;51.916;8.378;2023-08-30T07:01:24;15.10;99.90
35381;DHT22;21486;51.916;8.378;2023-08-30T07:03:49;15.20;99.90
35381;DHT22;21486;51.916;8.378;2023-08-30T07:06:15;15.20;99.90
35381;DHT22;21486;51.916;8.378;2023-08-30T07:08:40;15.20;99.90
35381;DHT22;21486;51.916;8.378;2023-08-30T07:11:06;15.30;99.90
35381;DHT22;21486;51.916;8.378;2023-08-30T07:13:32;15.20;99.90
35381;DHT22;21486;51.916;8.378;2023-08-30T07:15:57;15.50;99.90
35381;DHT22;21486;51.916;8.378;2023-08-30T07:18:23;15.60;99.90
35381;DHT22;21486;51.916;8.378;2023-08-30T07:20:48;15.50;99.90
35381;DHT22;21486;51.916;8.378;2023-08-30T07:23:14;15.40;99.90
35381;DHT22;21486;51.916;8.378;2023-08-30T07:25:39;15.50;99.90
35381;DHT22;21486;51.916;8.378;2023-08-30T07:28:05;15.60;99.90
35381;DHT22;21486;51.916;8.378;2023-08-30T07:30:31;15.70;99.90
35381;DHT22;21486;51.916;8.378;2023-08-30T07:32:56;16.00;99.90
35381;DHT22;21486;51.916;8.378;2023-08-30T07:35:22;16.10;99.90
35381;DHT22;21486;51.916;8.378;2023-08-30T07:37:48;16.20;99.90
35381;DHT22;21486;51.916;8.378;2023-08-30T07:40:14;16.30;99.90
35381;DHT22;21486;51.916;8.378;2023-08-30T07:42:39;16.60;99.90
35381;DHT22;21486;51.916;8.378;2023-08-30T07:45:05;16.70;99.90
35381;DHT22;21486;51.916;8.378;2023-08-30T07:47:31;16.60;99.90
35381;DHT22;21486;51.916;8.378;2023-08-30T07:49:56;16.80;99.90
35381;DHT22;21486;51.916;8.378;2023-08-30T07:52:22;16.90;99.90
35381;DHT22;21486;51.916;8.378;2023-08-30T07:54:47;16.80;99.90
35381;DHT22;21486;51.916;8.378;2023-08-30T07:57:13;17.00;99.90
35381;DHT22;21486;51.916;8.378;2023-08-30T07:59:38;17.10;99.90
35381;DHT22;21486;51.916;8.378;2023-08-30T08:02:05;17.00;99.90
35381;DHT22;21486;51.916;8.378;2023-08-30T08:04:33;17.10;99.90
35381;DHT22;21486;51.916;8.378;2023-08-30T08:06:58;17.30;99.90
35381;DHT22;21486;51.916;8.378;2023-08-30T08:09:24;17.10;99.90
35381;DHT22;21486;51.916;8.378;2023-08-30T08:11:50;17.20;99.90
35381;DHT22;21486;51.916;8.378;2023-08-30T08:14:15;17.40;99.90
35381;DHT22;21486;51.916;8.378;2023-08-30T08:16:41;18.00;99.90
35381;DHT22;21486;51.916;8.378;2023-08-30T08:19:07;18.50;99.90
35381;DHT22;21486;51.916;8.378;2023-08-30T08:21:33;18.90;99.90
35381;DHT22;21486;51.916;8.378;2023-08-30T08:23:59;19.10;99.90
35381;DHT22;21486;51.916;8.378;2023-08-30T08:26:25;19.20;99.90
35381;DHT22;21486;51.916;8.378;2023-08-30T08:28:51;19.20;99.90
35381;DHT22;21486;51.916;8.378;2023-08-30T08:31:16;18.60;99.90
35381;DHT22;21486;51.916;8.378;2023-08-30T08:33:42;18.90;99.90
35381;DHT22;21486;51.916;8.378;2023-08-30T08:36:08;19.30;99.90
35381;DHT22;21486;51.916;8.378;2023-08-30T08:38:33;19.80;99.90
35381;DHT22;21486;51.916;8.378;2023-08-30T08:41:04;20.60;99.90
35381;DHT22;21486;51.916;8.378;2023-08-30T08:43:32;20.60;99.90
35381;DHT22;21486;51.916;8.378;2023-08-30T08:46:01;20.90;99.90
35381;DHT22;21486;51.916;8.378;2023-08-30T08:48:29;20.70;99.90
35381;DHT22;21486;51.916;8.378;2023-08-30T08:50:57;20.50;99.90
35381;DHT22;21486;51.916;8.378;2023-08-30T08:53:22;21.00;99.90
35381;DHT22;21486;51.916;8.378;2023-08-30T08:55:49;20.50;99.90
35381;DHT22;21486;51.916;8.378;2023-08-30T08:58:15;20.40;99.90
35381;DHT22;21486;51.916;8.378;2023-08-30T09:00:44;20.40;99.90
35381;DHT22;21486;51.916;8.378;2023-08-30T09:03:10;20.60;99.90
35381;DHT22;21486;51.916;8.378;2023-08-30T09:05:37;21.20;99.90
35381;DHT22;21486;51.916;8.378;2023-08-30T09:08:05;21.20;99.90
35381;DHT22;21486;51.916;8.378;2023-08-30T09:10:35;21.30;99.90
35381;DHT22;21486;51.916;8.378;2023-08-30T09:13:01;21.50;99.90
35381;DHT22;21486;51.916;8.378;2023-08-30T09:15:33;21.80;99.90
35381;DHT22;21486;51.916;8.378;2023-08-30T09:17:59;22.00;99.90
35381;DHT22;21486;51.916;8.378;2023-08-30T09:20:25;22.30;97.40
35381;DHT22;21486;51.916;8.378;2023-08-30T09:22:51;22.30;96.80
35381;DHT22;21486;51.916;8.378;2023-08-30T09:25:26;23.10;96.20
35381;DHT22;21486;51.916;8.378;2023-08-30T09:27:59;22.90;94.70
35381;DHT22;21486;51.916;8.378;2023-08-30T09:30:25;23.40;94.60
35381;DHT22;21486;51.916;8.378;2023-08-30T09:32:51;23.70;93.50
35381;DHT22;21486;51.916;8.378;2023-08-30T09:35:16;24.20;91.90
35381;DHT22;21486;51.916;8.378;2023-08-30T09:37:44;23.60;89.30
35381;DHT22;21486;51.916;8.378;2023-08-30T09:40:10;23.30;91.60
35381;DHT22;21486;51.916;8.378;2023-08-30T09:42:41;23.40;92.10
35381;DHT22;21486;51.916;8.378;2023-08-30T09:45:17;23.70;90.20
35381;DHT22;21486;51.916;8.378;2023-08-30T09:47:47;23.80;89.10
35381;DHT22;21486;51.916;8.378;2023-08-30T09:50:14;24.30;86.80
35381;DHT22;21486;51.916;8.378;2023-08-30T09:52:43;24.80;80.10
35381;DHT22;21486;51.916;8.378;2023-08-30T09:55:09;25.40;78.80
35381;DHT22;21486;51.916;8.378;2023-08-30T09:57:35;24.80;80.30
35381;DHT22;21486;51.916;8.378;2023-08-30T10:00:01;24.20;79.60
35381;DHT22;21486;51.916;8.378;2023-08-30T10:02:30;24.40;81.90
35381;DHT22;21486;51.916;8.378;2023-08-30T10:04:57;24.10;79.50
35381;DHT22;21486;51.916;8.378;2023-08-30T10:07:24;23.60;79.30
35381;DHT22;21486;51.916;8.378;2023-08-30T10:09:51;22.00;82.90
35381;DHT22;21486;51.916;8.378;2023-08-30T10:12:20;22.00;86.20
35381;DHT22;21486;51.916;8.378;2023-08-30T10:14:47;21.50;86.50
35381;DHT22;21486;51.916;8.378;2023-08-30T10:17:14;20.90;85.50
35381;DHT22;21486;51.916;8.378;2023-08-30T10:19:43;20.90;88.10
35381;DHT22;21486;51.916;8.378;2023-08-30T10:22:10;20.80;89.20
35381;DHT22;21486;51.916;8.378;2023-08-30T10:24:45;20.50;88.10
35381;DHT22;21486;51.916;8.378;2023-08-30T10:27:13;20.30;90.00
35381;DHT22;21486;51.916;8.378;2023-08-30T10:29:41;20.60;89.70
35381;DHT22;21486;51.916;8.378;2023-08-30T10:32:07;20.60;88.00
35381;DHT22;21486;51.916;8.378;2023-08-30T10:34:34;20.50;91.20
35381;DHT22;21486;51.916;8.378;2023-08-30T10:37:01;20.40;87.70
35381;DHT22;21486;51.916;8.378;2023-08-30T10:39:35;19.80;89.20
35381;DHT22;21486;51.916;8.378;2023-08-30T10:42:08;19.70;90.30
35381;DHT22;21486;51.916;8.378;2023-08-30T10:44:33;19.60;92.00
35381;DHT22;21486;51.916;8.378;2023-08-30T10:47:01;19.60;92.60
35381;DHT22;21486;51.916;8.378;2023-08-30T10:49:27;19.60;90.40
35381;DHT22;21486;51.916;8.378;2023-08-30T10:51:57;19.50;91.70
35381;DHT22;21486;51.916;8.378;2023-08-30T10:54:23;19.40;91.80
35381;DHT22;21486;51.916;8.378;2023-08-30T10:59:21;19.30;92.10
35381;DHT22;21486;51.916;8.378;2023-08-30T11:01:48;19.50;93.60
35381;DHT22;21486;51.916;8.378;2023-08-30T11:04:16;19.70;92.90
35381;DHT22;21486;51.916;8.378;2023-08-30T11:06:44;19.50;92.60
35381;DHT22;21486;51.916;8.378;2023-08-30T11:09:15;19.40;91.50
35381;DHT22;21486;51.916;8.378;2023-08-30T11:11:43;19.30;94.20
35381;DHT22;21486;51.916;8.378;2023-08-30T11:14:10;19.50;92.20
35381;DHT22;21486;51.916;8.378;2023-08-30T11:16:36;19.60;92.20
35381;DHT22;21486;51.916;8.378;2023-08-30T11:19:06;19.70;93.60
35381;DHT22;21486;51.916;8.378;2023-08-30T11:21:34;19.80;91.70
35381;DHT22;21486;51.916;8.378;2023-08-30T11:24:00;20.00;92.40
35381;DHT22;21486;51.916;8.378;2023-08-30T11:26:26;19.80;91.00
35381;DHT22;21486;51.916;8.378;2023-08-30T11:28:52;19.90;92.40
35381;DHT22;21486;51.916;8.378;2023-08-30T11:31:25;20.20;92.20
35381;DHT22;21486;51.916;8.378;2023-08-30T11:33:54;20.40;90.80
35381;DHT22;21486;51.916;8.378;2023-08-30T11:36:22;20.20;90.30
35381;DHT22;21486;51.916;8.378;2023-08-30T11:38:49;20.20;89.50
35381;DHT22;21486;51.916;8.378;2023-08-30T11:41:15;20.40;89.90
35381;DHT22;21486;51.916;8.378;2023-08-30T11:43:40;20.70;91.00
35381;DHT22;21486;51.916;8.378;2023-08-30T11:46:06;20.70;86.60
35381;DHT22;21486;51.916;8.378;2023-08-30T11:48:33;20.40;86.60
35381;DHT22;21486;51.916;8.378;2023-08-30T11:50:59;20.20;86.60
35381;DHT22;21486;51.916;8.378;2023-08-30T11:53:25;20.10;87.80
35381;DHT22;21486;51.916;8.378;2023-08-30T11:55:51;20.20;89.50
35381;DHT22;21486;51.916;8.378;2023-08-30T11:58:20;20.10;88.80
35381;DHT22;21486;51.916;8.378;2023-08-30T12:00:48;19.80;88.30
35381;DHT22;21486;51.916;8.378;2023-08-30T12:03:15;19.60;90.00
35381;DHT22;21486;51.916;8.378;2023-08-30T12:05:47;19.30;91.20
35381;DHT22;21486;51.916;8.378;2023-08-30T12:08:29;19.30;92.60
35381;DHT22;21486;51.916;8.378;2023-08-30T12:10:56;19.20;93.00
35381;DHT22;21486;51.916;8.378;2023-08-30T12:13:26;19.10;93.30
35381;DHT22;21486;51.916;8.378;2023-08-30T12:15:57;19.00;95.10
35381;DHT22;21486;51.916;8.378;2023-08-30T12:18:27;18.80;95.10
35381;DHT22;21486;51.916;8.378;2023-08-30T12:23:23;18.80;96.50
35381;DHT22;21486;51.916;8.378;2023-08-30T12:26:05;18.60;98.10
35381;DHT22;21486;51.916;8.378;2023-08-30T12:28:34;18.50;96.50
35381;DHT22;21486;51.916;8.378;2023-08-30T12:31:00;18.40;97.70
35381;DHT22;21486;51.916;8.378;2023-08-30T12:33:26;18.40;98.70
35381;DHT22;21486;51.916;8.378;2023-08-30T12:35:53;18.20;99.50
35381;DHT22;21486;51.916;8.378;2023-08-30T12:38:18;18.20;99.90
35381;DHT22;21486;51.916;8.378;2023-08-30T12:40:45;18.20;99.90
35381;DHT22;21486;51.916;8.378;2023-08-30T12:43:11;18.40;99.90
35381;DHT22;21486;51.916;8.378;2023-08-30T12:45:38;18.50;99.90
35381;DHT22;21486;51.916;8.378;2023-08-30T12:48:04;18.60;99.90
35381;DHT22;21486;51.916;8.378;2023-08-30T12:50:30;18.60;99.90
35381;DHT22;21486;51.916;8.378;2023-08-30T12:52:56;18.70;99.90
35381;DHT22;21486;51.916;8.378;2023-08-30T12:55:21;18.80;99.90
35381;DHT22;21486;51.916;8.378;2023-08-30T12:57:47;18.90;99.90
35381;DHT22;21486;51.916;8.378;2023-08-30T13:00:13;19.00;99.90
35381;DHT22;21486;51.916;8.378;2023-08-30T13:02:40;19.00;99.90
35381;DHT22;21486;51.916;8.378;2023-08-30T13:05:05;18.80;99.90
35381;DHT22;21486;51.916;8.378;2023-08-30T13:07:31;18.60;99.90
35381;DHT22;21486;51.916;8.378;2023-08-30T13:09:57;18.30;99.90
35381;DHT22;21486;51.916;8.378;2023-08-30T13:12:23;18.10;99.90
35381;DHT22;21486;51.916;8.378;2023-08-30T13:14:48;17.90;99.90
35381;DHT22;21486;51.916;8.378;2023-08-30T13:17:14;17.80;99.90
35381;DHT22;21486;51.916;8.378;2023-08-30T13:19:43;17.80;99.90
35381;DHT22;21486;51.916;8.378;2023-08-30T13:22:08;17.60;99.90
35381;DHT22;21486;51.916;8.378;2023-08-30T13:24:35;17.40;99.90
35381;DHT22;21486;51.916;8.378;2023-08-30T13:27:01;17.30;99.90
35381;DHT22;21486;51.916;8.378;2023-08-30T13:29:26;17.20;99.90
35381;DHT22;21486;51.916;8.378;2023-08-30T13:31:52;17.10;99.90
35381;DHT22;21486;51.916;8.378;2023-08-30T13:34:17;17.10;99.90
35381;DHT22;21486;51.916;8.378;2023-08-30T13:36:43;16.90;99.90
35381;DHT22;21486;51.916;8.378;2023-08-30T13:39:08;16.60;99.90
35381;DHT22;21486;51.916;8.378;2023-08-30T13:41:34;16.50;99.90
35381;DHT22;21486;51.916;8.378;2023-08-30T13:44:01;16.50;99.90
35381;DHT22;21486;51.916;8.378;2023-08-30T13:46:29;16.40;99.90
35381;DHT22;21486;51.916;8.378;2023-08-30T13:48:55;16.20;99.90
35381;DHT22;21486;51.916;8.378;2023-08-30T13:51:22;16.00;99.90
35381;DHT22;21486;51.916;8.378;2023-08-30T13:53:48;16.00;99.90
35381;DHT22;21486;51.916;8.378;2023-08-30T13:56:13;15.90;99.90
35381;DHT22;21486;51.916;8.378;2023-08-30T13:58:39;15.90;99.90
35381;DHT22;21486;51.916;8.378;2023-08-30T14:01:05;16.10;99.90
35381;DHT22;21486;51.916;8.378;2023-08-30T14:03:30;16.10;99.90
35381;DHT22;21486;51.916;8.378;2023-08-30T14:05:56;16.10;99.90
35381;DHT22;21486;51.916;8.378;2023-08-30T14:08:21;16.10;99.90
35381;DHT22;21486;51.916;8.378;2023-08-30T14:10:47;16.20;99.90
35381;DHT22;21486;51.916;8.378;2023-08-30T14:13:13;16.20;99.90
35381;DHT22;21486;51.916;8.378;2023-08-30T14:15:40;16.20;99.90
35381;DHT22;21486;51.916;8.378;2023-08-30T14:18:05;16.20;99.90
35381;DHT22;21486;51.916;8.378;2023-08-30T14:20:31;16.20;99.90
35381;DHT22;21486;51.916;8.378;2023-08-30T14:22:57;16.10;99.90
35381;DHT22;21486;51.916;8.378;2023-08-30T14:25:22;16.00;99.90
35381;DHT22;21486;51.916;8.378;2023-08-30T14:27:48;15.90;99.90
35381;DHT22;21486;51.916;8.378;2023-08-30T14:30:14;15.80;99.90
35381;DHT22;21486;51.916;8.378;2023-08-30T14:32:40;15.90;99.90
35381;DHT22;21486;51.916;8.378;2023-08-30T14:35:06;15.90;99.90
35381;DHT22;21486;51.916;8.378;2023-08-30T14:37:31;15.80;99.90
35381;DHT22;21486;51.916;8.378;2023-08-30T14:39:57;15.70;99.90
35381;DHT22;21486;51.916;8.378;2023-08-30T14:42:22;15.60;99.90
35381;DHT22;21486;51.916;8.378;2023-08-30T14:44:51;15.60;99.90
35381;DHT22;21486;51.916;8.378;2023-08-30T14:47:17;15.60;99.90
35381;DHT22;21486;51.916;8.378;2023-08-30T14:49:45;15.70;99.90
35381;DHT22;21486;51.916;8.378;2023-08-30T14:52:10;15.80;99.90
35381;DHT22;21486;51.916;8.378;2023-08-30T14:54:36;15.90;99.90
35381;DHT22;21486;51.916;8.378;2023-08-30T14:57:01;15.90;99.90
35381;DHT22;21486;51.916;8.378;2023-08-30T14:59:27;15.90;99.90
35381;DHT22;21486;51.916;8.378;2023-08-30T15:01:53;16.00;99.90
35381;DHT22;21486;51.916;8.378;2023-08-30T15:04:18;16.10;99.90
35381;DHT22;21486;51.916;8.378;2023-08-30T15:06:44;16.10;99.90
35381;DHT22;21486;51.916;8.378;2023-08-30T15:09:10;16.20;99.90
35381;DHT22;21486;51.916;8.378;2023-08-30T15:11:36;16.20;99.90
35381;DHT22;21486;51.916;8.378;2023-08-30T15:14:01;16.20;99.90
35381;DHT22;21486;51.916;8.378;2023-08-30T15:16:27;16.20;99.90
35381;DHT22;21486;51.916;8.378;2023-08-30T15:18:53;16.10;99.90
35381;DHT22;21486;51.916;8.378;2023-08-30T15:21:18;16.10;99.90
35381;DHT22;21486;51.916;8.378;2023-08-30T15:23:44;16.10;99.90
35381;DHT22;21486;51.916;8.378;2023-08-30T15:26:09;16.10;99.90
35381;DHT22;21486;51.916;8.378;2023-08-30T15:28:41;16.00;99.90
35381;DHT22;21486;51.916;8.378;2023-08-30T15:31:08;16.00;99.90
35381;DHT22;21486;51.916;8.378;2023-08-30T15:33:34;16.00;99.90
35381;DHT22;21486;51.916;8.378;2023-08-30T15:36:00;15.90;99.90